Time;durP1;ratioP1;P1;durP2;ratioP2;P2;SDS_P1;SDS_P2;PMS_P1;PMS_P2;Temp;Humidity;BMP_temperature;BMP_pressure;BME280_temperature;BME280_humidity;BME280_pressure;Samples;Min_cycle;Max_cycle;Signal;HPM_P1;HPM_P2
2023/01/24 00:01:03;;;;;;;9.75;7.53;;;;;;;;;;5052474;28;20052;-76
2023/01/24 00:03:29;;;;;;;11.68;8.15;;;;;;;;;;5034004;28;20022;-76
2023/01/24 00:05:55;;;;;;;9.93;7.43;;;;;;;;;;5050704;28;20739;-76
2023/01/24 00:08:24;;;;;;;9.73;6.30;;;;;;;;;;5042641;28;20028;-76
2023/01/24 00:10:58;;;;;;;8.38;6.28;;;;;;;;;;5036976;28;20461;-76
2023/01/24 00:13:24;;;;;;;9.77;6.22;;;;;;;;;;5039605;28;20014;-76
2023/01/24 00:15:50;;;;;;;11.48;6.97;;;;;;;;;;5045738;28;20479;-76
2023/01/24 00:18:16;;;;;;;11.15;6.68;;;;;;;;;;5041765;28;20021;-76
2023/01/24 00:20:42;;;;;;;10.02;6.93;;;;;;;;;;5050910;28;20045;-76
2023/01/24 00:23:08;;;;;;;12.93;7.53;;;;;;;;;;5038739;28;20362;-75
2023/01/24 00:25:35;;;;;;;11.25;7.53;;;;;;;;;;5038553;28;20063;-76
2023/01/24 00:28:01;;;;;;;10.75;7.25;;;;;;;;;;5037858;28;20029;-76
2023/01/24 00:30:27;;;;;;;7.45;6.15;;;;;;;;;;5036225;28;20367;-76
2023/01/24 00:32:53;;;;;;;9.20;6.05;;;;;;;;;;5037094;28;20028;-76
2023/01/24 00:35:19;;;;;;;9.07;6.28;;;;;;;;;;5033622;28;20029;-75
2023/01/24 00:37:45;;;;;;;9.23;6.78;;;;;;;;;;5037218;28;20026;-75
2023/01/24 00:40:11;;;;;;;8.52;6.40;;;;;;;;;;5027746;28;20483;-76
2023/01/24 00:42:37;;;;;;;8.98;6.38;;;;;;;;;;5030526;28;20371;-76
2023/01/24 00:45:03;;;;;;;8.48;6.85;;;;;;;;;;5044756;28;20114;-76
2023/01/24 00:47:30;;;;;;;9.32;6.90;;;;;;;;;;5034065;28;20036;-76
2023/01/24 00:49:56;;;;;;;8.65;6.85;;;;;;;;;;5035185;28;20029;-76
2023/01/24 00:52:22;;;;;;;10.77;7.10;;;;;;;;;;5039816;28;20021;-76
2023/01/24 00:54:48;;;;;;;9.32;7.15;;;;;;;;;;5048128;28;20033;-76
2023/01/24 00:57:14;;;;;;;9.45;7.32;;;;;;;;;;5039231;28;20083;-76
2023/01/24 00:59:41;;;;;;;10.38;7.55;;;;;;;;;;5048946;28;20035;-76
2023/01/24 01:02:07;;;;;;;10.27;7.82;;;;;;;;;;5035800;28;20095;-76
2023/01/24 01:04:33;;;;;;;10.43;7.95;;;;;;;;;;5032099;28;20026;-76
2023/01/24 01:06:59;;;;;;;9.25;7.28;;;;;;;;;;5036963;28;20131;-76
2023/01/24 01:09:25;;;;;;;13.25;10.65;;;;;;;;;;5039474;28;20737;-77
2023/01/24 01:11:51;;;;;;;12.07;8.80;;;;;;;;;;5045339;28;20036;-76
2023/01/24 01:14:17;;;;;;;9.95;7.72;;;;;;;;;;5038012;28;20041;-75
2023/01/24 01:16:43;;;;;;;11.57;7.28;;;;;;;;;;5045566;28;20124;-76
2023/01/24 01:19:09;;;;;;;9.77;7.20;;;;;;;;;;5045618;28;20474;-76
2023/01/24 01:21:36;;;;;;;10.55;6.50;;;;;;;;;;5035881;28;20156;-75
2023/01/24 01:24:02;;;;;;;7.70;6.28;;;;;;;;;;5036333;28;20033;-76
2023/01/24 01:26:28;;;;;;;8.30;6.43;;;;;;;;;;5047063;28;20068;-76
2023/01/24 01:28:54;;;;;;;6.85;5.95;;;;;;;;;;5036051;28;20029;-76
2023/01/24 01:31:20;;;;;;;7.53;5.78;;;;;;;;;;5036420;28;20029;-76
2023/01/24 01:33:46;;;;;;;8.32;5.80;;;;;;;;;;5045870;28;20509;-76
2023/01/24 01:36:12;;;;;;;7.57;5.50;;;;;;;;;;5040608;28;20085;-76
2023/01/24 01:38:38;;;;;;;6.95;5.82;;;;;;;;;;5044012;28;20113;-76
2023/01/24 01:41:05;;;;;;;6.95;5.10;;;;;;;;;;5069028;28;20033;-76
2023/01/24 01:43:31;;;;;;;7.75;5.80;;;;;;;;;;5045393;28;20024;-76
2023/01/24 01:46:17;;;;;;;7.20;5.10;;;;;;;;;;5034580;28;20668;-76
2023/01/24 01:48:45;;;;;;;6.35;4.80;;;;;;;;;;5035816;28;20032;-76
2023/01/24 01:51:14;;;;;;;7.25;4.65;;;;;;;;;;5039607;28;20025;-76
2023/01/24 01:53:52;;;;;;;6.75;4.43;;;;;;;;;;5037110;28;20021;-76
2023/01/24 01:56:24;;;;;;;5.97;4.50;;;;;;;;;;5044225;28;20422;-76
2023/01/24 01:58:51;;;;;;;5.10;4.43;;;;;;;;;;5036210;28;20014;-76
2023/01/24 02:01:17;;;;;;;5.47;4.72;;;;;;;;;;5053573;28;20502;-76
2023/01/24 02:03:46;;;;;;;5.13;3.85;;;;;;;;;;5038698;28;20096;-76
2023/01/24 02:06:32;;;;;;;4.90;3.92;;;;;;;;;;5042582;28;20033;-76
2023/01/24 02:08:59;;;;;;;4.93;4.03;;;;;;;;;;5027703;28;20060;-76
2023/01/24 02:11:38;;;;;;;4.85;3.83;;;;;;;;;;5035755;28;20033;-76
2023/01/24 02:16:50;;;;;;;4.50;3.38;;;;;;;;;;5036796;28;20040;-75
2023/01/24 02:19:20;;;;;;;4.63;3.80;;;;;;;;;;5039063;28;20071;-76
2023/01/24 02:21:47;;;;;;;4.72;3.47;;;;;;;;;;5038455;28;20048;-77
2023/01/24 02:24:20;;;;;;;4.00;3.45;;;;;;;;;;5037267;28;20039;-76
2023/01/24 02:26:46;;;;;;;4.47;3.55;;;;;;;;;;5042344;28;20022;-76
2023/01/24 02:29:14;;;;;;;3.92;3.42;;;;;;;;;;5043629;28;20025;-76
2023/01/24 02:31:58;;;;;;;4.25;3.70;;;;;;;;;;5042842;28;20077;-77
2023/01/24 02:34:24;;;;;;;3.88;3.28;;;;;;;;;;5039511;28;20090;-76
2023/01/24 02:36:52;;;;;;;5.00;3.88;;;;;;;;;;5046555;28;20402;-76
2023/01/24 02:39:22;;;;;;;5.03;3.72;;;;;;;;;;5036966;28;20065;-76
2023/01/24 02:41:57;;;;;;;4.57;3.60;;;;;;;;;;5046228;28;20032;-76
2023/01/24 02:44:28;;;;;;;4.63;4.00;;;;;;;;;;5035702;28;20177;-76
2023/01/24 02:46:54;;;;;;;4.82;4.03;;;;;;;;;;5041777;28;20028;-76
2023/01/24 02:49:20;;;;;;;4.30;3.38;;;;;;;;;;5036841;28;20110;-76
2023/01/24 02:54:30;;;;;;;4.20;3.45;;;;;;;;;;5041504;28;20048;-77
2023/01/24 02:59:41;;;;;;;4.18;3.17;;;;;;;;;;5032919;28;20041;-76
2023/01/24 03:02:07;;;;;;;3.45;3.00;;;;;;;;;;5036972;28;20140;-76
2023/01/24 03:04:33;;;;;;;4.32;2.88;;;;;;;;;;5042132;28;20539;-76
2023/01/24 03:06:59;;;;;;;4.20;3.42;;;;;;;;;;5046342;28;20043;-76
2023/01/24 03:09:35;;;;;;;3.67;2.90;;;;;;;;;;5043236;28;20025;-76
2023/01/24 03:36:45;;;;;;;4.70;2.63;;;;;;;;;;5037734;28;20079;-76
2023/01/24 03:41:55;;;;;;;3.90;2.85;;;;;;;;;;5037714;28;20201;-76
2023/01/24 03:44:23;;;;;;;2.47;2.28;;;;;;;;;;5044538;28;20028;-76
2023/01/24 03:46:49;;;;;;;5.00;2.92;;;;;;;;;;5044440;28;20023;-76
2023/01/24 03:49:16;;;;;;;3.13;2.50;;;;;;;;;;5045459;28;20021;-77
2023/01/24 03:54:27;;;;;;;3.63;2.70;;;;;;;;;;5039363;28;20098;-76
2023/01/24 03:56:54;;;;;;;3.20;2.33;;;;;;;;;;5039370;28;20037;-76
2023/01/24 03:59:20;;;;;;;3.25;2.63;;;;;;;;;;5036905;28;20112;-76
2023/01/24 04:01:46;;;;;;;3.47;2.85;;;;;;;;;;5037032;28;20061;-75
2023/01/24 04:04:12;;;;;;;3.22;2.60;;;;;;;;;;5040034;28;20036;-76
2023/01/24 04:06:38;;;;;;;3.75;2.70;;;;;;;;;;5041601;28;20180;-76
2023/01/24 04:09:04;;;;;;;3.92;3.25;;;;;;;;;;5047569;28;20048;-76
2023/01/24 04:11:30;;;;;;;3.60;3.03;;;;;;;;;;5035414;28;20433;-76
2023/01/24 04:13:56;;;;;;;3.53;2.90;;;;;;;;;;5030636;28;20021;-76
2023/01/24 04:16:22;;;;;;;4.00;2.92;;;;;;;;;;5033264;28;20036;-76
2023/01/24 04:18:48;;;;;;;3.30;2.60;;;;;;;;;;5040864;28;20033;-76
2023/01/24 04:21:14;;;;;;;3.42;2.65;;;;;;;;;;5043592;28;20053;-75
2023/01/24 04:23:40;;;;;;;3.70;3.00;;;;;;;;;;5044384;28;20620;-76
2023/01/24 04:26:06;;;;;;;3.50;2.75;;;;;;;;;;5046843;28;20036;-76
2023/01/24 04:28:32;;;;;;;3.90;2.78;;;;;;;;;;5052862;28;20033;-76
2023/01/24 04:30:59;;;;;;;4.47;2.80;;;;;;;;;;5044816;28;20495;-76
2023/01/24 04:33:26;;;;;;;3.42;2.85;;;;;;;;;;5038384;28;20052;-75
2023/01/24 04:35:52;;;;;;;6.00;2.88;;;;;;;;;;5055849;28;20033;-76
2023/01/24 04:38:18;;;;;;;4.57;3.30;;;;;;;;;;5047771;28;20025;-77
2023/01/24 04:40:44;;;;;;;4.28;3.10;;;;;;;;;;5046608;28;20029;-76
2023/01/24 04:43:10;;;;;;;4.18;3.05;;;;;;;;;;5048405;28;20091;-76
2023/01/24 04:45:36;;;;;;;4.82;3.05;;;;;;;;;;5040559;28;20083;-76
2023/01/24 04:48:02;;;;;;;4.68;3.20;;;;;;;;;;5042181;28;20053;-77
2023/01/24 04:50:28;;;;;;;3.35;2.65;;;;;;;;;;5047077;28;20029;-76
2023/01/24 04:52:54;;;;;;;3.75;3.33;;;;;;;;;;5049226;28;20022;-76
2023/01/24 04:55:20;;;;;;;7.38;2.85;;;;;;;;;;5044513;28;20489;-76
2023/01/24 04:57:46;;;;;;;6.57;3.58;;;;;;;;;;5056432;28;20047;-76
2023/01/24 05:00:13;;;;;;;4.05;2.90;;;;;;;;;;5043178;28;20037;-76
2023/01/24 05:02:39;;;;;;;3.92;3.13;;;;;;;;;;5036565;28;20406;-76
2023/01/24 05:05:06;;;;;;;3.78;2.97;;;;;;;;;;5034523;28;20048;-76
2023/01/24 05:07:32;;;;;;;4.55;3.00;;;;;;;;;;5046058;28;20018;-77
2023/01/24 05:09:58;;;;;;;3.85;2.90;;;;;;;;;;5044590;28;20033;-76
2023/01/24 05:12:24;;;;;;;6.78;2.72;;;;;;;;;;5039593;28;20451;-76
2023/01/24 05:14:50;;;;;;;4.15;2.97;;;;;;;;;;5038380;28;20028;-75
2023/01/24 05:17:16;;;;;;;7.13;3.30;;;;;;;;;;5040393;28;20025;-76
2023/01/24 05:19:42;;;;;;;5.43;3.58;;;;;;;;;;5040648;28;20493;-76
2023/01/24 05:22:08;;;;;;;4.63;3.42;;;;;;;;;;5041165;28;20068;-76
2023/01/24 05:24:34;;;;;;;4.38;3.60;;;;;;;;;;5042263;28;20100;-76
2023/01/24 05:27:01;;;;;;;4.30;3.28;;;;;;;;;;5048196;28;20509;-75
2023/01/24 05:29:27;;;;;;;4.57;3.55;;;;;;;;;;5043672;28;20029;-76
2023/01/24 05:31:53;;;;;;;4.40;3.13;;;;;;;;;;5044333;28;20021;-76
2023/01/24 05:34:19;;;;;;;6.90;3.30;;;;;;;;;;5042057;28;20025;-76
2023/01/24 05:36:45;;;;;;;5.45;3.28;;;;;;;;;;5041080;28;20091;-76
2023/01/24 05:39:11;;;;;;;5.30;3.70;;;;;;;;;;5041562;28;20040;-76
2023/01/24 05:41:37;;;;;;;5.40;3.78;;;;;;;;;;5045245;28;20029;-76
2023/01/24 05:44:03;;;;;;;5.05;3.97;;;;;;;;;;5047072;28;20028;-76
2023/01/24 05:46:29;;;;;;;4.13;3.53;;;;;;;;;;5046816;28;20024;-76
2023/01/24 05:48:55;;;;;;;5.30;3.75;;;;;;;;;;5036000;28;20047;-75
2023/01/24 05:51:21;;;;;;;6.22;4.40;;;;;;;;;;5052611;28;20454;-76
2023/01/24 05:53:48;;;;;;;6.65;3.90;;;;;;;;;;5049894;28;20428;-76
2023/01/24 05:56:15;;;;;;;5.47;3.90;;;;;;;;;;5039104;28;20025;-74
2023/01/24 05:58:42;;;;;;;5.97;4.22;;;;;;;;;;5046465;28;20029;-76
2023/01/24 06:01:13;;;;;;;7.07;3.95;;;;;;;;;;5040120;28;20033;-76
2023/01/24 06:03:40;;;;;;;5.82;4.13;;;;;;;;;;5038619;28;20649;-76
2023/01/24 06:06:07;;;;;;;5.53;3.92;;;;;;;;;;5030477;28;20461;-76
2023/01/24 06:08:33;;;;;;;5.38;3.90;;;;;;;;;;5043067;28;20029;-76
2023/01/24 06:11:03;;;;;;;4.72;3.90;;;;;;;;;;5046791;28;20112;-76
2023/01/24 06:13:29;;;;;;;9.65;4.00;;;;;;;;;;5047850;28;20466;-76
2023/01/24 06:16:00;;;;;;;6.18;4.45;;;;;;;;;;5047125;28;20083;-77
2023/01/24 06:18:26;;;;;;;6.15;3.72;;;;;;;;;;5043530;28;20041;-76
2023/01/24 06:20:55;;;;;;;5.93;4.22;;;;;;;;;;5040546;28;20068;-76
2023/01/24 06:23:25;;;;;;;6.35;3.78;;;;;;;;;;5039387;28;20575;-77
2023/01/24 06:25:53;;;;;;;5.45;4.53;;;;;;;;;;5042070;28;20132;-76
2023/01/24 06:28:20;;;;;;;5.57;4.30;;;;;;;;;;5038120;28;20067;-75
2023/01/24 06:30:53;;;;;;;5.25;4.03;;;;;;;;;;5042287;28;20025;-76
2023/01/24 06:33:26;;;;;;;5.35;4.10;;;;;;;;;;5044822;28;21855;-76
2023/01/24 06:36:15;;;;;;;5.55;3.80;;;;;;;;;;5034563;28;20033;-76
2023/01/24 06:38:41;;;;;;;7.18;4.28;;;;;;;;;;5039895;28;20025;-75
2023/01/24 06:41:14;;;;;;;5.22;3.58;;;;;;;;;;5036497;28;20459;-75
2023/01/24 06:43:40;;;;;;;6.03;3.78;;;;;;;;;;5039363;28;20043;-77
2023/01/24 06:46:08;;;;;;;6.00;4.25;;;;;;;;;;5038724;28;20559;-76
2023/01/24 06:48:34;;;;;;;5.05;3.78;;;;;;;;;;5039831;28;20060;-76
2023/01/24 06:51:00;;;;;;;5.57;3.80;;;;;;;;;;5038694;28;20804;-76
2023/01/24 06:53:26;;;;;;;5.50;4.43;;;;;;;;;;5039932;28;20032;-76
2023/01/24 06:55:52;;;;;;;5.82;4.18;;;;;;;;;;5041573;28;20036;-76
2023/01/24 06:58:19;;;;;;;6.47;4.45;;;;;;;;;;5040684;28;20544;-76
2023/01/24 07:00:45;;;;;;;6.95;5.00;;;;;;;;;;5037238;28;20113;-75
2023/01/24 07:03:11;;;;;;;6.18;4.35;;;;;;;;;;5037512;28;20448;-76
2023/01/24 07:05:38;;;;;;;6.57;3.75;;;;;;;;;;5040424;28;20034;-76
2023/01/24 07:08:05;;;;;;;5.32;4.30;;;;;;;;;;5040031;28;20052;-76
2023/01/24 07:10:31;;;;;;;6.97;4.53;;;;;;;;;;5041749;28;20021;-76
2023/01/24 07:12:57;;;;;;;6.38;3.97;;;;;;;;;;5041382;28;20040;-75
2023/01/24 07:15:23;;;;;;;8.77;6.10;;;;;;;;;;5041111;28;20025;-76
2023/01/24 07:17:49;;;;;;;11.23;9.98;;;;;;;;;;5040191;28;20026;-75
2023/01/24 07:20:16;;;;;;;14.80;13.50;;;;;;;;;;5039755;28;20064;-76
2023/01/24 07:22:42;;;;;;;13.65;11.60;;;;;;;;;;5040171;28;20109;-76
2023/01/24 07:25:13;;;;;;;9.45;7.45;;;;;;;;;;5041043;28;20025;-76
2023/01/24 07:27:40;;;;;;;9.98;9.00;;;;;;;;;;5040256;28;20024;-75
2023/01/24 07:30:06;;;;;;;7.55;6.75;;;;;;;;;;5039293;28;20040;-75
2023/01/24 07:32:32;;;;;;;8.65;5.75;;;;;;;;;;5041719;28;20033;-76
2023/01/24 07:34:58;;;;;;;8.68;7.25;;;;;;;;;;5039497;28;20116;-76
2023/01/24 07:37:24;;;;;;;8.40;5.47;;;;;;;;;;5039407;28;20469;-75
2023/01/24 07:39:50;;;;;;;6.50;4.43;;;;;;;;;;5037331;28;20033;-75
2023/01/24 07:42:16;;;;;;;7.07;4.93;;;;;;;;;;5039262;28;20036;-76
2023/01/24 07:44:43;;;;;;;6.68;4.95;;;;;;;;;;5040474;28;20028;-76
2023/01/24 07:47:09;;;;;;;7.35;5.20;;;;;;;;;;5037358;28;20025;-76
2023/01/24 07:49:35;;;;;;;6.05;3.95;;;;;;;;;;5041168;28;20036;-76
2023/01/24 07:52:01;;;;;;;8.20;5.20;;;;;;;;;;5043200;28;20021;-76
2023/01/24 07:54:27;;;;;;;8.25;5.00;;;;;;;;;;5042544;28;20381;-76
2023/01/24 07:56:53;;;;;;;9.60;4.72;;;;;;;;;;5045759;28;20039;-76
2023/01/24 07:59:19;;;;;;;7.05;5.50;;;;;;;;;;5043960;28;20037;-76
2023/01/24 08:01:45;;;;;;;8.68;4.97;;;;;;;;;;5042463;28;20037;-75
2023/01/24 08:04:11;;;;;;;6.07;4.35;;;;;;;;;;5039647;28;20037;-76
2023/01/24 08:07:16;;;;;;;7.75;5.03;;;;;;;;;;5044011;28;20021;-76
2023/01/24 08:09:26;;;;;;;9.00;5.03;;;;;;;;;;5044844;28;20036;-76
2023/01/24 08:11:52;;;;;;;8.02;5.63;;;;;;;;;;5039459;28;20141;-76
2023/01/24 08:14:18;;;;;;;9.02;5.55;;;;;;;;;;5044242;28;20034;-75
2023/01/24 08:16:44;;;;;;;8.05;5.47;;;;;;;;;;5043852;28;20033;-75
2023/01/24 08:19:10;;;;;;;8.82;6.00;;;;;;;;;;5041812;28;20032;-75
2023/01/24 08:21:37;;;;;;;10.68;5.80;;;;;;;;;;5041047;28;20486;-76
2023/01/24 08:24:03;;;;;;;10.30;6.93;;;;;;;;;;5042610;28;20033;-76
2023/01/24 08:26:29;;;;;;;9.15;6.50;;;;;;;;;;5040782;28;20397;-75
2023/01/24 08:28:55;;;;;;;12.25;8.05;;;;;;;;;;5041471;28;20022;-75
2023/01/24 08:31:21;;;;;;;9.30;6.70;;;;;;;;;;5042982;28;20489;-74
2023/01/24 08:33:47;;;;;;;10.18;7.18;;;;;;;;;;5044070;28;20020;-76
2023/01/24 08:36:13;;;;;;;8.43;6.63;;;;;;;;;;5043360;28;20065;-76
2023/01/24 08:38:39;;;;;;;9.38;6.40;;;;;;;;;;5042294;28;20052;-76
2023/01/24 08:41:07;;;;;;;10.27;6.97;;;;;;;;;;5041690;28;20029;-78
2023/01/24 08:43:33;;;;;;;8.77;6.25;;;;;;;;;;5038346;28;20117;-76
2023/01/24 08:45:59;;;;;;;6.90;5.07;;;;;;;;;;5042873;28;20553;-76
2023/01/24 08:48:25;;;;;;;8.60;6.13;;;;;;;;;;5040986;28;20066;-76
2023/01/24 08:50:51;;;;;;;9.38;5.30;;;;;;;;;;5042495;28;20372;-77
2023/01/24 08:53:17;;;;;;;9.77;5.80;;;;;;;;;;5040465;28;20460;-76
2023/01/24 08:55:43;;;;;;;8.73;5.05;;;;;;;;;;5042405;28;20080;-76
2023/01/24 08:58:09;;;;;;;8.57;5.03;;;;;;;;;;5041553;28;20022;-76
2023/01/24 09:00:36;;;;;;;7.18;5.07;;;;;;;;;;5040937;28;20032;-76
2023/01/24 09:03:02;;;;;;;8.10;4.80;;;;;;;;;;5036979;28;20083;-76
2023/01/24 09:05:29;;;;;;;5.43;4.63;;;;;;;;;;5041723;28;20031;-75
2023/01/24 09:07:55;;;;;;;5.78;4.90;;;;;;;;;;5040893;28;20021;-75
2023/01/24 09:10:21;;;;;;;6.70;4.95;;;;;;;;;;5036379;28;20053;-76
2023/01/24 09:12:47;;;;;;;5.35;4.45;;;;;;;;;;5037822;28;20560;-76
2023/01/24 09:15:13;;;;;;;6.35;5.03;;;;;;;;;;5040390;28;20960;-76
2023/01/24 09:17:39;;;;;;;5.95;3.97;;;;;;;;;;5042298;28;20075;-75
2023/01/24 09:20:06;;;;;;;5.10;4.22;;;;;;;;;;5042252;28;20571;-75
2023/01/24 09:22:32;;;;;;;4.75;4.10;;;;;;;;;;5037428;28;20032;-75
2023/01/24 09:24:58;;;;;;;4.32;3.90;;;;;;;;;;5041595;28;20025;-76
2023/01/24 09:27:25;;;;;;;5.28;3.72;;;;;;;;;;5041012;28;20071;-76
2023/01/24 09:29:51;;;;;;;5.20;4.10;;;;;;;;;;5040704;28;20033;-76
2023/01/24 09:32:17;;;;;;;5.05;3.70;;;;;;;;;;5042084;28;20356;-76
2023/01/24 09:34:47;;;;;;;5.50;4.05;;;;;;;;;;5037931;28;20033;-76
2023/01/24 09:37:20;;;;;;;4.60;3.40;;;;;;;;;;5044191;28;20024;-76
2023/01/24 09:39:47;;;;;;;4.70;3.70;;;;;;;;;;5037494;28;20024;-76
2023/01/24 09:42:15;;;;;;;5.07;3.53;;;;;;;;;;5043403;28;20082;-76
2023/01/24 09:44:45;;;;;;;5.00;3.53;;;;;;;;;;5037386;28;20170;-75
2023/01/24 09:47:16;;;;;;;3.55;3.25;;;;;;;;;;5041156;28;20029;-74
2023/01/24 09:49:50;;;;;;;4.05;3.20;;;;;;;;;;5040405;28;20017;-77
2023/01/24 09:52:35;;;;;;;5.10;3.80;;;;;;;;;;5036497;28;20022;-76
2023/01/24 09:55:23;;;;;;;3.80;3.28;;;;;;;;;;5042401;28;20027;-76
2023/01/24 09:57:54;;;;;;;3.75;3.15;;;;;;;;;;5039731;28;20036;-76
2023/01/24 10:00:28;;;;;;;4.80;3.75;;;;;;;;;;5039246;28;20029;-76
2023/01/24 10:02:58;;;;;;;7.38;3.83;;;;;;;;;;5040330;28;20079;-76
2023/01/24 10:05:34;;;;;;;4.47;3.38;;;;;;;;;;5040152;28;20702;-76
2023/01/24 10:08:03;;;;;;;3.78;3.20;;;;;;;;;;5040522;28;20053;-76
2023/01/24 10:10:39;;;;;;;3.70;3.20;;;;;;;;;;5033188;28;20025;-76
2023/01/24 10:13:15;;;;;;;4.47;3.33;;;;;;;;;;5039443;28;20017;-76
2023/01/24 10:15:47;;;;;;;4.68;3.45;;;;;;;;;;5038771;28;20039;-76
2023/01/24 10:18:22;;;;;;;6.82;3.40;;;;;;;;;;5040317;28;20059;-76
2023/01/24 10:21:08;;;;;;;4.65;3.40;;;;;;;;;;5034134;28;20103;-76
2023/01/24 10:23:38;;;;;;;4.55;4.10;;;;;;;;;;5040872;28;20454;-76
2023/01/24 10:26:12;;;;;;;3.60;3.30;;;;;;;;;;5038905;28;20508;-76
2023/01/24 10:28:40;;;;;;;4.55;3.50;;;;;;;;;;5040314;28;20037;-76
2023/01/24 10:31:07;;;;;;;3.65;3.25;;;;;;;;;;5042101;28;20025;-76
2023/01/24 10:33:47;;;;;;;3.88;3.20;;;;;;;;;;5039523;28;20026;-76
2023/01/24 10:36:31;;;;;;;2.92;2.63;;;;;;;;;;5038970;28;20032;-74
2023/01/24 10:38:57;;;;;;;3.88;3.00;;;;;;;;;;5039726;28;20057;-76
2023/01/24 10:41:24;;;;;;;3.22;2.92;;;;;;;;;;5037714;28;20123;-76
2023/01/24 10:44:00;;;;;;;3.10;2.67;;;;;;;;;;5040564;28;20079;-77
2023/01/24 10:46:32;;;;;;;3.95;2.80;;;;;;;;;;5037632;28;20037;-76
2023/01/24 10:48:58;;;;;;;4.57;3.40;;;;;;;;;;5036990;28;20060;-76
2023/01/24 10:51:25;;;;;;;3.35;2.90;;;;;;;;;;5041183;28;20437;-76
2023/01/24 10:53:51;;;;;;;4.82;3.30;;;;;;;;;;5035165;28;20025;-76
2023/01/24 10:56:19;;;;;;;5.10;3.20;;;;;;;;;;5038060;28;20032;-76
2023/01/24 10:59:05;;;;;;;4.55;2.83;;;;;;;;;;5037597;28;20067;-77
2023/01/24 11:01:37;;;;;;;3.70;2.90;;;;;;;;;;5037890;28;20021;-74
2023/01/24 11:04:18;;;;;;;3.95;2.88;;;;;;;;;;5041236;28;20040;-76
2023/01/24 11:06:49;;;;;;;4.03;2.90;;;;;;;;;;5039521;28;20025;-76
2023/01/24 11:09:16;;;;;;;3.97;2.83;;;;;;;;;;5039438;28;20029;-76
2023/01/24 11:11:53;;;;;;;3.90;2.83;;;;;;;;;;5039749;28;20024;-76
2023/01/24 11:14:24;;;;;;;3.22;2.80;;;;;;;;;;5038935;28;20482;-76
2023/01/24 11:16:51;;;;;;;4.63;3.38;;;;;;;;;;5037649;28;20045;-76
2023/01/24 11:19:28;;;;;;;3.80;3.08;;;;;;;;;;5039534;28;20040;-76
2023/01/24 11:21:56;;;;;;;3.60;2.80;;;;;;;;;;5037857;28;20055;-76
2023/01/24 11:24:22;;;;;;;3.88;3.47;;;;;;;;;;5039317;28;20684;-76
2023/01/24 11:26:57;;;;;;;3.15;2.70;;;;;;;;;;5041914;28;20029;-76
2023/01/24 11:29:24;;;;;;;4.55;3.38;;;;;;;;;;5044496;28;20028;-76
2023/01/24 11:31:57;;;;;;;3.88;2.80;;;;;;;;;;5045261;28;20474;-76
2023/01/24 11:34:36;;;;;;;3.17;2.80;;;;;;;;;;5046278;28;20033;-76
2023/01/24 11:37:02;;;;;;;3.25;2.80;;;;;;;;;;5044397;28;20025;-76
2023/01/24 11:39:28;;;;;;;3.88;3.05;;;;;;;;;;5043918;28;20051;-76
2023/01/24 11:41:57;;;;;;;3.38;3.05;;;;;;;;;;5045740;28;20024;-76
2023/01/24 11:44:38;;;;;;;4.85;3.03;;;;;;;;;;5043005;28;20029;-76
2023/01/24 11:47:15;;;;;;;4.97;3.72;;;;;;;;;;5048091;28;20024;-76
2023/01/24 11:49:54;;;;;;;3.08;2.58;;;;;;;;;;5049981;28;20462;-75
2023/01/24 11:52:24;;;;;;;3.97;3.33;;;;;;;;;;5043367;28;20397;-76
2023/01/24 11:54:50;;;;;;;5.10;4.38;;;;;;;;;;5041888;28;20029;-76
2023/01/24 11:57:25;;;;;;;4.75;3.47;;;;;;;;;;5044297;28;20159;-76
2023/01/24 12:00:06;;;;;;;4.90;3.50;;;;;;;;;;5043318;28;20035;-77
2023/01/24 12:02:51;;;;;;;5.22;3.97;;;;;;;;;;5040266;28;20117;-75
2023/01/24 12:05:24;;;;;;;5.67;3.73;;;;;;;;;;5043764;28;20040;-76
2023/01/24 12:07:59;;;;;;;4.65;3.97;;;;;;;;;;5043822;28;20023;-77
2023/01/24 12:10:44;;;;;;;4.45;3.63;;;;;;;;;;5041523;28;20025;-76
2023/01/24 12:13:27;;;;;;;4.67;3.60;;;;;;;;;;5042616;28;20060;-76
2023/01/24 12:15:53;;;;;;;6.15;4.47;;;;;;;;;;5045135;28;20032;-77
2023/01/24 12:18:43;;;;;;;4.32;3.05;;;;;;;;;;5043598;28;20146;-76
2023/01/24 12:21:10;;;;;;;5.75;3.08;;;;;;;;;;5037665;28;20055;-76
2023/01/24 12:23:52;;;;;;;8.07;5.10;;;;;;;;;;5042565;28;20028;-76
2023/01/24 12:26:26;;;;;;;5.75;4.18;;;;;;;;;;5044864;28;20037;-76
2023/01/24 12:29:06;;;;;;;5.90;3.22;;;;;;;;;;5044914;28;20849;-76
2023/01/24 12:31:52;;;;;;;4.22;3.30;;;;;;;;;;5042420;28;20021;-76
2023/01/24 12:34:27;;;;;;;5.25;4.05;;;;;;;;;;5058886;28;20278;-76
2023/01/24 12:37:00;;;;;;;3.30;3.00;;;;;;;;;;5042853;28;20027;-76
2023/01/24 12:39:30;;;;;;;7.32;4.88;;;;;;;;;;5040258;28;20524;-77
2023/01/24 12:42:00;;;;;;;6.15;4.22;;;;;;;;;;5039950;28;20401;-77
2023/01/24 12:44:31;;;;;;;5.28;4.40;;;;;;;;;;5039834;28;20104;-77
2023/01/24 12:47:00;;;;;;;7.53;5.07;;;;;;;;;;5040929;28;20036;-77
2023/01/24 12:49:26;;;;;;;5.05;3.30;;;;;;;;;;5039782;28;20036;-77
2023/01/24 12:52:08;;;;;;;5.88;4.07;;;;;;;;;;5039059;28;20132;-77
2023/01/24 12:54:43;;;;;;;4.97;3.70;;;;;;;;;;5039526;28;20372;-77
2023/01/24 12:57:33;;;;;;;4.57;3.53;;;;;;;;;;5041284;28;20132;-77
2023/01/24 13:00:00;;;;;;;4.75;3.85;;;;;;;;;;5035294;28;20055;-77
2023/01/24 13:02:42;;;;;;;3.63;2.90;;;;;;;;;;5036557;28;20055;-77
2023/01/24 13:05:14;;;;;;;4.93;3.15;;;;;;;;;;5035502;28;20047;-77
2023/01/24 13:07:46;;;;;;;3.63;3.28;;;;;;;;;;5041342;28;20022;-77
2023/01/24 13:10:32;;;;;;;7.18;5.13;;;;;;;;;;5042565;28;20025;-80
2023/01/24 13:12:59;;;;;;;5.15;4.00;;;;;;;;;;5041190;28;20096;-78
2023/01/24 13:15:30;;;;;;;10.48;6.85;;;;;;;;;;5039632;28;20033;-77
2023/01/24 13:18:06;;;;;;;10.05;7.18;;;;;;;;;;5042635;28;20386;-78
2023/01/24 13:20:58;;;;;;;5.40;3.03;;;;;;;;;;5047592;28;20045;-82
2023/01/24 13:23:35;;;;;;;5.80;4.45;;;;;;;;;;5042248;28;20044;-77
2023/01/24 13:26:30;;;;;;;4.50;3.65;;;;;;;;;;5046244;28;20041;-78
2023/01/24 13:29:03;;;;;;;4.63;3.40;;;;;;;;;;5039046;28;20519;-81
2023/01/24 13:31:38;;;;;;;8.20;4.97;;;;;;;;;;5040264;28;20059;-77
2023/01/24 13:34:11;;;;;;;5.35;4.80;;;;;;;;;;5042217;28;20025;-78
2023/01/24 13:36:39;;;;;;;6.60;4.35;;;;;;;;;;5046097;28;20029;-78
2023/01/24 13:39:05;;;;;;;4.15;2.67;;;;;;;;;;5045055;28;20027;-78
2023/01/24 13:41:37;;;;;;;3.45;2.97;;;;;;;;;;5038194;28;20027;-77
2023/01/24 13:44:04;;;;;;;4.65;3.00;;;;;;;;;;5042436;28;20046;-77
2023/01/24 13:46:45;;;;;;;6.88;3.80;;;;;;;;;;5035739;28;20810;-78
2023/01/24 13:49:19;;;;;;;3.97;3.03;;;;;;;;;;5039636;28;20029;-77
2023/01/24 13:51:49;;;;;;;7.05;4.28;;;;;;;;;;5040218;28;20036;-77
2023/01/24 13:54:41;;;;;;;4.90;3.40;;;;;;;;;;5034866;28;20025;-77
2023/01/24 13:57:10;;;;;;;3.33;2.83;;;;;;;;;;5040799;28;20040;-76
2023/01/24 13:59:38;;;;;;;5.43;3.33;;;;;;;;;;5041234;28;20029;-78
2023/01/24 14:02:25;;;;;;;7.03;3.25;;;;;;;;;;5038990;28;20482;-77
2023/01/24 14:04:51;;;;;;;6.32;3.60;;;;;;;;;;5035044;28;20179;-77
2023/01/24 14:07:26;;;;;;;4.32;3.08;;;;;;;;;;5040626;28;20551;-77
2023/01/24 14:09:58;;;;;;;3.42;3.10;;;;;;;;;;5037640;28;20036;-77
2023/01/24 14:12:24;;;;;;;3.60;3.13;;;;;;;;;;5040799;28;20526;-78
2023/01/24 14:15:24;;;;;;;3.22;2.70;;;;;;;;;;5039586;28;20036;-78
2023/01/24 14:17:51;;;;;;;3.97;2.97;;;;;;;;;;5039247;28;20033;-77
2023/01/24 14:20:21;;;;;;;3.78;2.97;;;;;;;;;;5035014;28;20086;-77
2023/01/24 14:22:47;;;;;;;5.25;2.97;;;;;;;;;;5040708;28;20025;-77
2023/01/24 14:25:32;;;;;;;3.75;3.15;;;;;;;;;;5039716;28;20055;-77
2023/01/24 14:28:00;;;;;;;6.28;3.70;;;;;;;;;;5039874;28;20285;-77
2023/01/24 14:30:50;;;;;;;5.80;3.30;;;;;;;;;;5039593;28;20090;-77
2023/01/24 14:33:36;;;;;;;4.10;3.38;;;;;;;;;;5041350;28;20029;-77
2023/01/24 14:36:08;;;;;;;3.40;3.10;;;;;;;;;;5037906;28;20033;-77
2023/01/24 14:38:34;;;;;;;4.63;3.10;;;;;;;;;;5039866;28;20032;-77
2023/01/24 14:41:00;;;;;;;3.22;2.80;;;;;;;;;;5041290;28;20037;-78
2023/01/24 14:43:39;;;;;;;4.50;3.42;;;;;;;;;;5037913;28;20079;-78
2023/01/24 14:46:12;;;;;;;4.90;2.72;;;;;;;;;;5040038;28;20031;-77
2023/01/24 14:48:38;;;;;;;4.15;3.15;;;;;;;;;;5071474;28;20055;-77
2023/01/24 14:51:06;;;;;;;6.10;4.32;;;;;;;;;;5041002;28;20021;-76
2023/01/24 14:53:34;;;;;;;4.40;3.40;;;;;;;;;;5036767;28;20021;-77
2023/01/24 14:56:01;;;;;;;6.55;3.80;;;;;;;;;;5036496;28;20671;-78
2023/01/24 14:58:28;;;;;;;7.10;3.88;;;;;;;;;;5037510;28;20037;-78
2023/01/24 15:00:56;;;;;;;3.88;3.42;;;;;;;;;;5038244;28;20087;-77
2023/01/24 15:03:25;;;;;;;4.22;3.30;;;;;;;;;;5034344;28;20528;-78
2023/01/24 15:06:18;;;;;;;7.22;4.03;;;;;;;;;;5032291;28;20059;-77
2023/01/24 15:08:44;;;;;;;5.30;4.45;;;;;;;;;;5033637;28;20042;-78
2023/01/24 15:11:19;;;;;;;4.45;3.63;;;;;;;;;;5038953;28;20025;-77
2023/01/24 15:13:50;;;;;;;7.40;5.10;;;;;;;;;;5038124;28;20021;-78
2023/01/24 15:16:20;;;;;;;25.90;14.05;;;;;;;;;;5039472;28;20033;-77
2023/01/24 15:18:50;;;;;;;26.02;13.52;;;;;;;;;;5036441;28;20036;-78
2023/01/24 15:21:18;;;;;;;37.55;22.48;;;;;;;;;;5037522;28;20422;-77
2023/01/24 15:23:48;;;;;;;57.65;33.13;;;;;;;;;;5036483;28;20033;-77
2023/01/24 15:26:24;;;;;;;23.50;13.82;;;;;;;;;;5037351;28;20075;-77
2023/01/24 15:28:50;;;;;;;8.77;5.00;;;;;;;;;;5038707;28;20024;-77
2023/01/24 15:31:19;;;;;;;5.22;3.90;;;;;;;;;;5037235;28;20474;-78
2023/01/24 15:33:57;;;;;;;6.60;3.22;;;;;;;;;;5037216;28;20385;-77